Current Conditions
Mostly Scattered
Clouds



Rainfall
0.00 (mm) - 0.00 (in)
Pressure
1016.92 (hPa) - 30.03 (inHG)
Visibility

10.0 (km) - 6.2 (miles)
   Temperature
27  °C
81°F
21  °C
Dewpoint
70  %
 Humidity
   Wind Speed
27  km/h
15  kts
17  mph
7.6  m/s
   Wind Direction
 10°
Due North
   Airport Data
LTBA
Location Atatürk International 10 km (6.22 mi)
Metar :LTBA 231420Z 01015KT 340V070 9999 SCT025 27/21 Q1017 NOSIG RMK RWY17L 01017G27KT RWY05 36011G25KT 300V050 RWY23 04013KT 360V090
Fri 23rd August 17:20 pm
   Raw Metar Info
Raw METAR is the most common format in the world for the transmission of observational weather data. It is highly standardized through the International Civil Aviation Organization (ICAO), which allows it to be understood throughout most of the world.
   API Info
Data Provided by
https://www.checkwx.com/weather/
   © Info
CSS/SVG/PHP scripts were developed by weather34.com for use in the weather34 template © 2015-2019

Guide Info provided by Metar-Wikipedia